createdAt,value
2022-10-15T00:04:05.679Z,10.00
2022-10-15T00:09:08.884Z,10.00
2022-10-15T00:14:12.409Z,10.00
2022-10-15T00:19:15.405Z,10.00
2022-10-15T00:24:19.854Z,9.98
2022-10-15T00:29:22.949Z,9.90
2022-10-15T00:34:26.054Z,10.00
2022-10-15T00:39:29.210Z,10.10
2022-10-15T00:44:32.274Z,10.10
2022-10-15T00:50:02.738Z,10.20
2022-10-15T00:55:14.327Z,10.18
2022-10-15T01:00:19.750Z,10.10
2022-10-15T01:05:24.570Z,10.10
2022-10-15T01:10:57.121Z,10.20
2022-10-15T01:16:51.121Z,10.30
2022-10-15T01:22:14.503Z,10.30
2022-10-15T01:28:10.558Z,10.20
2022-10-15T01:33:24.941Z,10.20
2022-10-15T01:39:14.826Z,10.20
2022-10-15T01:44:42.717Z,10.22
2022-10-15T01:49:49.563Z,10.20
2022-10-15T01:54:54.057Z,10.10
2022-10-15T01:59:59.038Z,10.06
2022-10-15T02:05:02.610Z,10.00
2022-10-15T02:10:42.485Z,10.10
2022-10-15T02:16:13.131Z,10.20
2022-10-15T02:21:35.900Z,10.20
2022-10-15T02:26:42.360Z,10.20
2022-10-15T02:31:50.511Z,10.20
2022-10-15T02:36:55.154Z,10.10
2022-10-15T02:41:58.663Z,10.06
2022-10-15T02:47:02.691Z,10.10
2022-10-15T02:52:06.169Z,10.10
2022-10-15T02:57:09.210Z,10.10
2022-10-15T03:02:15.430Z,10.00
2022-10-15T03:07:21.959Z,9.90
2022-10-15T03:12:26.212Z,9.80
2022-10-15T03:17:29.217Z,9.80
2022-10-15T03:22:32.217Z,9.80
2022-10-15T03:27:35.219Z,9.80
2022-10-15T03:32:38.273Z,9.80
2022-10-15T03:37:41.364Z,9.80
2022-10-15T03:42:44.439Z,9.70
2022-10-15T03:47:47.573Z,9.70
2022-10-15T03:52:50.565Z,9.60
2022-10-15T03:57:53.580Z,9.70
2022-10-15T04:02:56.657Z,9.78
2022-10-15T04:07:59.778Z,9.80
2022-10-15T04:13:02.767Z,9.80
2022-10-15T04:18:05.872Z,9.80
2022-10-15T04:23:10.141Z,9.80
2022-10-15T04:28:13.227Z,9.80
2022-10-15T04:33:16.227Z,9.86
2022-10-15T04:38:19.322Z,9.90
2022-10-15T04:43:22.436Z,9.92
2022-10-15T04:48:28.960Z,10.00
2022-10-15T04:53:32.535Z,9.94
2022-10-15T04:58:37.190Z,9.90
2022-10-15T05:03:45.213Z,9.90
2022-10-15T05:08:50.164Z,10.00
2022-10-15T05:13:56.993Z,10.00
2022-10-15T05:19:04.232Z,10.06
2022-10-15T05:24:07.245Z,10.10
2022-10-15T05:29:10.355Z,10.00
2022-10-15T05:34:13.364Z,10.00
2022-10-15T05:39:16.570Z,10.00
2022-10-15T05:44:19.518Z,10.10
2022-10-15T05:49:22.572Z,10.10
2022-10-15T05:54:26.700Z,10.18
2022-10-15T05:59:29.716Z,10.20
2022-10-15T06:04:35.607Z,10.22
2022-10-15T06:09:39.103Z,10.30
2022-10-15T06:14:42.207Z,10.50
2022-10-15T06:19:45.304Z,10.62
2022-10-15T06:24:48.545Z,10.70
2022-10-15T06:29:51.926Z,10.70
2022-10-15T06:34:54.934Z,10.80
2022-10-15T06:39:58.201Z,10.90
2022-10-15T06:45:01.163Z,10.96
2022-10-15T06:50:06.411Z,11.00
2022-10-15T06:55:10.260Z,10.90
2022-10-15T07:00:14.259Z,10.90
2022-10-15T07:05:18.973Z,11.00
2022-10-15T07:10:23.745Z,11.10
2022-10-15T07:15:27.068Z,11.10
2022-10-15T07:20:31.740Z,11.20
2022-10-15T07:25:34.930Z,11.28
2022-10-15T07:30:38.007Z,11.30
2022-10-15T07:35:41.018Z,11.50
2022-10-15T07:40:44.324Z,11.60
2022-10-15T07:45:50.605Z,11.70
2022-10-15T07:51:04.157Z,11.70
2022-10-15T07:56:11.837Z,11.70
2022-10-15T08:01:14.772Z,11.90
2022-10-15T08:06:19.366Z,12.06
2022-10-15T08:11:22.413Z,12.30
2022-10-15T08:16:25.838Z,12.50
2022-10-15T08:21:28.826Z,12.60
2022-10-15T08:26:32.046Z,12.70
2022-10-15T08:31:35.657Z,12.86
2022-10-15T08:36:38.670Z,13.12
2022-10-15T08:41:52.823Z,13.30
2022-10-15T08:47:34.520Z,13.40
2022-10-15T08:52:50.593Z,13.50
2022-10-15T08:58:16.177Z,13.70
2022-10-15T09:03:44.993Z,13.80
2022-10-15T09:09:23.130Z,13.80
2022-10-15T09:14:35.990Z,13.92
2022-10-15T09:19:39.266Z,14.10
2022-10-15T09:24:42.274Z,14.40
2022-10-15T09:30:47.323Z,14.64
2022-10-15T09:36:19.207Z,14.70
2022-10-15T09:41:49.576Z,14.76
2022-10-15T09:46:52.963Z,14.90
2022-10-15T09:52:31.828Z,15.10
2022-10-15T09:57:39.065Z,15.00
2022-10-15T10:02:42.260Z,15.00
2022-10-15T10:07:45.431Z,15.10
2022-10-15T10:12:49.079Z,15.30
2022-10-15T10:17:57.242Z,15.30
2022-10-15T10:23:05.259Z,15.34
2022-10-15T10:28:16.773Z,15.40
2022-10-15T10:33:44.786Z,15.40
2022-10-15T10:39:21.375Z,15.40
2022-10-15T10:44:36.888Z,15.70
2022-10-15T10:49:46.540Z,16.10
2022-10-15T10:54:58.447Z,16.40
2022-10-15T11:00:04.867Z,16.70
2022-10-15T11:05:08.769Z,17.00
2022-10-15T11:10:26.503Z,17.20
2022-10-15T11:15:59.518Z,17.50
2022-10-15T11:21:57.422Z,17.50
2022-10-15T11:27:10.835Z,17.30
2022-10-15T11:32:28.403Z,17.20
2022-10-15T11:38:12.153Z,17.30
2022-10-15T11:43:52.737Z,17.42
2022-10-15T11:49:14.075Z,17.60
2022-10-15T11:55:07.865Z,17.74
2022-10-15T12:00:38.209Z,18.00
2022-10-15T12:05:53.095Z,18.26
2022-10-15T12:11:43.719Z,18.30
2022-10-15T12:17:16.952Z,18.20
2022-10-15T12:22:52.491Z,18.00
2022-10-15T12:28:19.435Z,17.90
2022-10-15T12:33:52.090Z,17.90
2022-10-15T12:39:05.909Z,18.00
2022-10-15T12:44:30.480Z,18.00
2022-10-15T12:49:47.744Z,18.28
2022-10-15T12:54:52.916Z,18.32
2022-10-15T13:00:01.467Z,18.32
2022-10-15T13:05:08.684Z,18.30
2022-10-15T13:10:28.536Z,18.30
2022-10-15T13:15:34.621Z,18.34
2022-10-15T13:20:42.301Z,18.20
2022-10-15T13:25:45.654Z,18.10
2022-10-15T13:30:50.620Z,18.10
2022-10-15T13:35:54.446Z,18.10
2022-10-15T13:40:57.842Z,18.10
2022-10-15T13:46:02.200Z,17.96
2022-10-15T13:51:06.304Z,17.92
2022-10-15T13:56:25.424Z,17.90
2022-10-15T14:01:33.243Z,17.80
2022-10-15T14:06:40.324Z,17.80
2022-10-15T14:11:43.532Z,17.80
2022-10-15T14:16:48.659Z,17.60
2022-10-15T14:21:52.621Z,17.50
2022-10-15T14:26:55.799Z,17.40
2022-10-15T14:31:59.324Z,17.30
2022-10-15T14:37:04.161Z,17.40
2022-10-15T14:42:31.638Z,17.40
2022-10-15T14:47:34.838Z,17.30
2022-10-15T14:52:45.226Z,17.30
2022-10-15T14:57:50.172Z,17.20
2022-10-15T15:02:59.549Z,17.20
2022-10-15T15:08:06.499Z,17.28
2022-10-15T15:13:24.357Z,17.20
2022-10-15T15:18:28.613Z,17.10
2022-10-15T15:23:33.055Z,17.00
2022-10-15T15:28:36.387Z,16.90
2022-10-15T15:33:41.426Z,16.80
2022-10-15T15:38:44.926Z,16.90
2022-10-15T15:43:49.242Z,16.90
2022-10-15T15:48:52.468Z,16.80
2022-10-15T15:53:56.628Z,16.70
2022-10-15T15:58:59.623Z,16.60
2022-10-15T16:04:02.814Z,16.56
2022-10-15T16:09:06.071Z,16.60
2022-10-15T16:14:09.559Z,16.60
2022-10-15T16:19:12.758Z,16.50
2022-10-15T16:24:15.747Z,16.40
2022-10-15T16:29:18.862Z,16.30
2022-10-15T16:34:21.967Z,16.28
2022-10-15T16:39:24.976Z,16.30
2022-10-15T16:44:28.279Z,16.30
2022-10-15T16:49:31.500Z,16.22
2022-10-15T16:54:35.046Z,16.12
2022-10-15T16:59:38.228Z,16.08
2022-10-15T17:04:41.214Z,16.00
2022-10-15T17:09:45.337Z,15.90
2022-10-15T17:14:52.055Z,15.90
2022-10-15T17:19:55.141Z,15.90
2022-10-15T17:24:58.141Z,15.80
2022-10-15T17:30:01.173Z,15.70
2022-10-15T17:35:05.272Z,15.70
2022-10-15T17:40:09.640Z,15.70
2022-10-15T17:45:12.821Z,15.74
2022-10-15T17:50:16.030Z,15.80
2022-10-15T17:55:19.650Z,15.70
2022-10-15T18:00:23.268Z,15.70
2022-10-15T18:05:26.373Z,15.60
2022-10-15T18:10:30.008Z,15.70
2022-10-15T18:15:36.486Z,15.70
2022-10-15T18:20:44.655Z,15.70
2022-10-15T18:25:48.122Z,15.60
2022-10-15T18:30:51.223Z,15.60
2022-10-15T18:35:54.542Z,15.50
2022-10-15T18:40:57.741Z,15.60
2022-10-15T18:46:02.399Z,15.60
2022-10-15T18:51:12.278Z,15.60
2022-10-15T18:56:15.563Z,15.50
2022-10-15T19:01:42.187Z,15.50
2022-10-15T19:06:54.785Z,15.50
2022-10-15T19:11:58.947Z,15.50
2022-10-15T19:17:02.023Z,15.58
2022-10-15T19:22:06.250Z,15.60
2022-10-15T19:32:18.161Z,15.50
2022-10-15T19:37:21.368Z,15.50
2022-10-15T19:42:24.575Z,15.56
2022-10-15T19:47:28.056Z,15.58
2022-10-15T19:52:31.509Z,15.50
2022-10-15T19:57:34.611Z,15.50
2022-10-15T20:02:37.702Z,15.40
2022-10-15T20:07:40.733Z,15.38
2022-10-15T20:12:44.078Z,15.44
2022-10-15T20:17:48.205Z,15.48
2022-10-15T20:22:51.269Z,15.40
2022-10-15T20:27:54.896Z,15.40
2022-10-15T20:32:58.096Z,15.30
2022-10-15T20:38:02.711Z,15.28
2022-10-15T20:43:05.741Z,15.30
2022-10-15T20:48:19.910Z,15.32
2022-10-15T20:53:25.345Z,15.34
2022-10-15T20:58:29.314Z,15.30
2022-10-15T21:03:32.712Z,15.20
2022-10-15T21:08:36.631Z,15.20
2022-10-15T21:13:39.634Z,15.26
2022-10-15T21:18:42.737Z,15.30
2022-10-15T21:23:45.854Z,15.30
2022-10-15T21:28:54.960Z,15.20
2022-10-15T21:33:58.098Z,15.20
2022-10-15T21:39:07.779Z,15.14
2022-10-15T21:44:10.875Z,15.20
2022-10-15T21:49:14.385Z,15.20
2022-10-15T21:54:17.488Z,15.20
2022-10-15T21:59:20.593Z,15.14
2022-10-15T22:04:24.010Z,15.10
2022-10-15T22:09:27.468Z,15.10
2022-10-15T22:14:30.734Z,15.14
2022-10-15T22:19:33.735Z,15.20
2022-10-15T22:24:37.153Z,15.20
2022-10-15T22:29:41.396Z,15.10
2022-10-15T22:34:44.493Z,15.10
2022-10-15T22:39:47.510Z,15.10
2022-10-15T22:44:50.602Z,15.16
2022-10-15T22:49:53.673Z,15.20
2022-10-15T22:54:56.911Z,15.18
2022-10-15T22:59:59.915Z,15.10
2022-10-15T23:05:02.857Z,15.00
2022-10-15T23:10:07.256Z,15.00
2022-10-15T23:15:10.974Z,15.10
2022-10-15T23:20:14.082Z,15.10
2022-10-15T23:25:17.114Z,15.10
2022-10-15T23:30:25.137Z,15.00
2022-10-15T23:35:28.444Z,15.00
2022-10-15T23:40:31.728Z,15.00
2022-10-15T23:45:36.784Z,15.00
2022-10-15T23:50:42.651Z,15.00
2022-10-15T23:55:46.308Z,14.90
